createdAt,value
2022-11-19T00:00:01.316Z,1019.27
2022-11-19T00:10:00.130Z,1019.18
2022-11-19T00:20:01.078Z,1019.16
2022-11-19T00:30:01.053Z,1019.32
2022-11-19T00:40:02.254Z,1019.38
2022-11-19T00:50:01.439Z,1019.49
2022-11-19T01:00:01.297Z,1019.49
2022-11-19T01:10:03.102Z,1019.55
2022-11-19T01:20:01.251Z,1019.63
2022-11-19T01:30:01.238Z,1019.64
2022-11-19T01:40:00.186Z,1019.69
2022-11-19T01:50:01.362Z,1019.72
2022-11-19T02:00:00.179Z,1019.76
2022-11-19T02:10:01.227Z,1019.93
2022-11-19T02:20:01.710Z,1019.93
2022-11-19T02:30:00.157Z,1020.01
2022-11-19T02:50:00.983Z,1019.81
2022-11-19T03:00:01.322Z,1019.82
2022-11-19T03:10:00.121Z,1019.84
2022-11-19T03:20:01.110Z,1019.90
2022-11-19T03:30:00.176Z,1019.92
2022-11-19T03:40:01.237Z,1019.95
2022-11-19T03:50:01.058Z,1020.16
2022-11-19T04:10:00.122Z,1020.19
2022-11-19T04:20:01.324Z,1020.21
2022-11-19T04:30:01.992Z,1020.14
2022-11-19T04:40:01.242Z,1020.17
2022-11-19T04:50:01.221Z,1020.09
2022-11-19T05:00:01.066Z,1019.92
2022-11-19T05:10:01.625Z,1019.84
2022-11-19T05:30:01.289Z,1019.82
2022-11-19T05:40:01.004Z,1019.71
2022-11-19T05:50:00.131Z,1019.66
2022-11-19T06:00:01.472Z,1019.83
2022-11-19T06:10:01.240Z,1019.89
2022-11-19T06:20:00.194Z,1019.90
2022-11-19T06:30:00.159Z,1019.89
2022-11-19T06:40:00.175Z,1019.88
2022-11-19T06:50:01.205Z,1019.81
2022-11-19T07:00:02.251Z,1019.88
2022-11-19T07:10:01.274Z,1019.85
2022-11-19T07:20:01.329Z,1020.04
2022-11-19T07:30:01.052Z,1019.84
2022-11-19T07:40:01.063Z,1019.89
2022-11-19T07:50:00.167Z,1019.92
2022-11-19T08:00:01.005Z,1019.84
2022-11-19T08:10:01.436Z,1019.71
2022-11-19T08:20:01.995Z,1019.52
2022-11-19T08:30:01.081Z,1019.44
2022-11-19T08:40:00.163Z,1019.45
2022-11-19T08:50:01.040Z,1019.41
2022-11-19T09:00:06.093Z,1019.38
2022-11-19T09:10:01.019Z,1019.37
2022-11-19T09:20:01.091Z,1019.36
2022-11-19T09:30:00.996Z,1019.45
2022-11-19T09:40:01.523Z,1019.47
2022-11-19T09:50:01.490Z,1019.44
2022-11-19T10:00:01.621Z,1019.23
2022-11-19T10:10:01.237Z,1019.25
2022-11-19T10:20:01.566Z,1019.15
2022-11-19T10:30:01.053Z,1018.93
2022-11-19T10:40:00.170Z,1018.90
2022-11-19T10:50:03.538Z,1018.67
2022-11-19T11:00:00.165Z,1018.50
2022-11-19T11:10:01.057Z,1018.48
2022-11-19T11:20:01.080Z,1018.34
2022-11-19T11:30:00.128Z,1018.13
2022-11-19T11:50:01.032Z,1017.91
2022-11-19T12:00:01.572Z,1018.01
2022-11-19T12:10:01.170Z,1017.99
2022-11-19T12:20:01.035Z,1017.96
2022-11-19T12:30:01.940Z,1017.99
2022-11-19T12:40:00.183Z,1018.01
2022-11-19T12:50:01.229Z,1018.02
2022-11-19T13:00:01.058Z,1017.96
2022-11-19T13:10:01.793Z,1017.87
2022-11-19T13:20:01.015Z,1017.83
2022-11-19T13:30:01.575Z,1018.01
2022-11-19T13:40:01.282Z,1017.91
2022-11-19T13:50:01.233Z,1017.81
2022-11-19T14:00:01.468Z,1017.82
2022-11-19T14:10:01.266Z,1017.77
2022-11-19T14:20:01.046Z,1017.74
2022-11-19T14:30:01.031Z,1017.80
2022-11-19T14:40:00.186Z,1017.87
2022-11-19T14:50:01.459Z,1017.81
2022-11-19T15:00:00.200Z,1018.02
2022-11-19T15:10:00.967Z,1018.10
2022-11-19T15:20:01.273Z,1018.20
2022-11-19T15:30:01.233Z,1018.21
2022-11-19T15:40:01.476Z,1018.12
2022-11-19T15:50:01.596Z,1018.02
2022-11-19T16:00:01.791Z,1018.02
2022-11-19T16:10:01.160Z,1018.00
2022-11-19T16:20:01.030Z,1018.00
2022-11-19T16:30:00.150Z,1017.91
2022-11-19T16:40:01.548Z,1017.75
2022-11-19T16:50:01.298Z,1017.69
2022-11-19T17:00:01.625Z,1017.80
2022-11-19T17:10:01.278Z,1017.78
2022-11-19T17:20:01.300Z,1017.85
2022-11-19T17:30:01.374Z,1017.77
2022-11-19T17:50:01.032Z,1017.92
2022-11-19T18:00:02.097Z,1018.03
2022-11-19T18:10:00.160Z,1017.95
2022-11-19T18:20:01.328Z,1017.96
2022-11-19T18:30:01.002Z,1017.92
2022-11-19T18:50:01.013Z,1018.03
2022-11-19T19:00:00.996Z,1017.93
2022-11-19T19:10:01.050Z,1017.99
2022-11-19T19:20:00.164Z,1017.95
2022-11-19T19:30:01.737Z,1017.97
2022-11-19T19:40:01.459Z,1018.03
2022-11-19T19:50:00.984Z,1018.11
2022-11-19T20:00:01.572Z,1018.22
2022-11-19T20:10:01.027Z,1018.27
2022-11-19T20:20:01.964Z,1018.34
2022-11-19T20:30:01.028Z,1018.48
2022-11-19T20:40:01.406Z,1018.52
2022-11-19T20:50:00.145Z,1018.63
2022-11-19T21:10:06.396Z,1018.53
2022-11-19T21:20:00.922Z,1018.56
2022-11-19T21:30:01.076Z,1018.49
2022-11-19T21:50:01.341Z,1018.42
2022-11-19T22:00:02.473Z,1018.40
2022-11-19T22:10:01.244Z,1018.28
2022-11-19T22:20:01.983Z,1018.22
2022-11-19T22:30:05.601Z,1018.20
2022-11-19T22:40:01.275Z,1018.11
2022-11-19T22:50:01.032Z,1018.06
2022-11-19T23:00:01.745Z,1017.94
2022-11-19T23:10:01.219Z,1017.98
2022-11-19T23:20:04.520Z,1017.90
2022-11-19T23:30:01.311Z,1017.90
2022-11-19T23:40:01.042Z,1017.86
2022-11-19T23:50:01.009Z,1017.83
